sensor_id;sensor_type;location;lat;lon;timestamp;P1;durP1;ratioP1;P2;durP2;ratioP2
65545;SDS011;52177;55.968;37.498;2023-04-01T00:00:01;12.55;;;11.25;;
65545;SDS011;52177;55.968;37.498;2023-04-01T00:00:33;13.25;;;11.02;;
65545;SDS011;52177;55.968;37.498;2023-04-01T00:01:04;12.20;;;10.90;;
65545;SDS011;52177;55.968;37.498;2023-04-01T00:01:35;11.80;;;10.60;;
65545;SDS011;52177;55.968;37.498;2023-04-01T00:02:06;11.63;;;10.43;;
65545;SDS011;52177;55.968;37.498;2023-04-01T00:02:36;10.88;;;9.77;;
65545;SDS011;52177;55.968;37.498;2023-04-01T00:03:06;12.88;;;10.50;;
65545;SDS011;52177;55.968;37.498;2023-04-01T00:03:37;12.23;;;10.40;;
65545;SDS011;52177;55.968;37.498;2023-04-01T00:04:07;12.85;;;11.05;;
65545;SDS011;52177;55.968;37.498;2023-04-01T00:04:37;12.57;;;10.68;;
65545;SDS011;52177;55.968;37.498;2023-04-01T00:05:08;13.68;;;11.35;;
65545;SDS011;52177;55.968;37.498;2023-04-01T00:05:40;12.48;;;9.93;;
65545;SDS011;52177;55.968;37.498;2023-04-01T00:06:13;12.27;;;10.50;;
65545;SDS011;52177;55.968;37.498;2023-04-01T00:06:45;12.65;;;10.88;;
65545;SDS011;52177;55.968;37.498;2023-04-01T00:07:17;16.13;;;11.93;;
65545;SDS011;52177;55.968;37.498;2023-04-01T00:07:47;12.75;;;11.27;;
65545;SDS011;52177;55.968;37.498;2023-04-01T00:08:18;13.45;;;10.95;;
65545;SDS011;52177;55.968;37.498;2023-04-01T00:08:48;13.38;;;11.35;;
65545;SDS011;52177;55.968;37.498;2023-04-01T00:09:18;12.73;;;10.82;;
65545;SDS011;52177;55.968;37.498;2023-04-01T00:09:49;11.73;;;10.50;;
65545;SDS011;52177;55.968;37.498;2023-04-01T00:10:19;12.90;;;11.00;;
65545;SDS011;52177;55.968;37.498;2023-04-01T00:10:50;14.20;;;11.75;;
65545;SDS011;52177;55.968;37.498;2023-04-01T00:11:20;12.90;;;11.60;;
65545;SDS011;52177;55.968;37.498;2023-04-01T00:11:51;12.13;;;10.82;;
65545;SDS011;52177;55.968;37.498;2023-04-01T00:12:22;13.00;;;11.15;;
65545;SDS011;52177;55.968;37.498;2023-04-01T00:12:52;12.20;;;10.73;;
65545;SDS011;52177;55.968;37.498;2023-04-01T00:13:23;13.10;;;11.55;;
65545;SDS011;52177;55.968;37.498;2023-04-01T00:13:56;12.77;;;11.18;;
65545;SDS011;52177;55.968;37.498;2023-04-01T00:14:26;13.18;;;11.75;;
65545;SDS011;52177;55.968;37.498;2023-04-01T00:14:56;12.70;;;11.43;;
65545;SDS011;52177;55.968;37.498;2023-04-01T00:15:27;11.85;;;10.60;;
65545;SDS011;52177;55.968;37.498;2023-04-01T00:15:57;12.93;;;10.85;;
65545;SDS011;52177;55.968;37.498;2023-04-01T00:16:28;11.90;;;10.70;;
65545;SDS011;52177;55.968;37.498;2023-04-01T00:16:58;12.25;;;10.48;;
65545;SDS011;52177;55.968;37.498;2023-04-01T00:17:28;12.75;;;10.57;;
65545;SDS011;52177;55.968;37.498;2023-04-01T00:17:59;12.45;;;11.02;;
65545;SDS011;52177;55.968;37.498;2023-04-01T00:18:30;11.90;;;10.43;;
65545;SDS011;52177;55.968;37.498;2023-04-01T00:19:01;11.75;;;10.55;;
65545;SDS011;52177;55.968;37.498;2023-04-01T00:19:31;12.48;;;11.15;;
65545;SDS011;52177;55.968;37.498;2023-04-01T00:20:02;12.18;;;10.27;;
65545;SDS011;52177;55.968;37.498;2023-04-01T00:20:33;11.75;;;10.52;;
65545;SDS011;52177;55.968;37.498;2023-04-01T00:21:04;12.55;;;11.05;;
65545;SDS011;52177;55.968;37.498;2023-04-01T00:21:35;14.32;;;11.95;;
65545;SDS011;52177;55.968;37.498;2023-04-01T00:22:06;12.55;;;11.25;;
65545;SDS011;52177;55.968;37.498;2023-04-01T00:22:37;14.70;;;11.65;;
65545;SDS011;52177;55.968;37.498;2023-04-01T00:23:08;13.05;;;11.15;;
65545;SDS011;52177;55.968;37.498;2023-04-01T00:23:38;12.73;;;10.52;;
65545;SDS011;52177;55.968;37.498;2023-04-01T00:24:08;12.57;;;10.95;;
65545;SDS011;52177;55.968;37.498;2023-04-01T00:24:39;13.43;;;11.93;;
65545;SDS011;52177;55.968;37.498;2023-04-01T00:25:09;14.38;;;12.77;;
65545;SDS011;52177;55.968;37.498;2023-04-01T00:25:40;18.70;;;15.23;;
65545;SDS011;52177;55.968;37.498;2023-04-01T00:26:10;16.92;;;14.73;;
65545;SDS011;52177;55.968;37.498;2023-04-01T00:26:42;17.85;;;15.18;;
65545;SDS011;52177;55.968;37.498;2023-04-01T00:27:14;17.15;;;14.45;;
65545;SDS011;52177;55.968;37.498;2023-04-01T00:27:45;15.45;;;13.73;;
65545;SDS011;52177;55.968;37.498;2023-04-01T00:28:16;16.48;;;13.82;;
65545;SDS011;52177;55.968;37.498;2023-04-01T00:28:48;15.07;;;13.35;;
65545;SDS011;52177;55.968;37.498;2023-04-01T00:29:19;14.27;;;12.77;;
65545;SDS011;52177;55.968;37.498;2023-04-01T00:29:49;13.95;;;12.45;;
65545;SDS011;52177;55.968;37.498;2023-04-01T00:30:19;14.35;;;12.43;;
65545;SDS011;52177;55.968;37.498;2023-04-01T00:30:50;15.27;;;12.18;;
65545;SDS011;52177;55.968;37.498;2023-04-01T00:31:20;14.25;;;11.68;;
65545;SDS011;52177;55.968;37.498;2023-04-01T00:31:50;14.38;;;12.30;;
65545;SDS011;52177;55.968;37.498;2023-04-01T00:32:21;15.02;;;12.00;;
65545;SDS011;52177;55.968;37.498;2023-04-01T00:32:52;15.77;;;13.13;;
65545;SDS011;52177;55.968;37.498;2023-04-01T00:33:23;14.23;;;11.65;;
65545;SDS011;52177;55.968;37.498;2023-04-01T00:33:53;13.85;;;11.95;;
65545;SDS011;52177;55.968;37.498;2023-04-01T00:34:23;14.63;;;12.50;;
65545;SDS011;52177;55.968;37.498;2023-04-01T00:34:54;13.73;;;11.70;;
65545;SDS011;52177;55.968;37.498;2023-04-01T00:35:24;12.57;;;11.15;;
65545;SDS011;52177;55.968;37.498;2023-04-01T00:35:55;13.68;;;12.20;;
65545;SDS011;52177;55.968;37.498;2023-04-01T00:36:26;14.07;;;12.52;;
65545;SDS011;52177;55.968;37.498;2023-04-01T00:36:56;13.55;;;12.00;;
65545;SDS011;52177;55.968;37.498;2023-04-01T00:37:27;15.65;;;12.85;;
65545;SDS011;52177;55.968;37.498;2023-04-01T00:37:58;14.85;;;12.43;;
65545;SDS011;52177;55.968;37.498;2023-04-01T00:38:29;14.80;;;12.07;;
65545;SDS011;52177;55.968;37.498;2023-04-01T00:38:59;15.52;;;12.20;;
65545;SDS011;52177;55.968;37.498;2023-04-01T00:39:30;13.55;;;12.15;;
65545;SDS011;52177;55.968;37.498;2023-04-01T00:40:01;14.02;;;11.70;;
65545;SDS011;52177;55.968;37.498;2023-04-01T00:41:04;15.55;;;12.15;;
65545;SDS011;52177;55.968;37.498;2023-04-01T00:41:35;14.20;;;12.15;;
65545;SDS011;52177;55.968;37.498;2023-04-01T00:42:06;15.10;;;11.85;;
65545;SDS011;52177;55.968;37.498;2023-04-01T00:42:36;13.15;;;11.77;;
65545;SDS011;52177;55.968;37.498;2023-04-01T00:43:11;15.38;;;11.73;;
65545;SDS011;52177;55.968;37.498;2023-04-01T00:43:48;13.27;;;11.25;;
65545;SDS011;52177;55.968;37.498;2023-04-01T00:44:22;13.15;;;11.68;;
65545;SDS011;52177;55.968;37.498;2023-04-01T00:44:57;11.45;;;10.25;;
65545;SDS011;52177;55.968;37.498;2023-04-01T00:45:58;12.38;;;11.07;;
65545;SDS011;52177;55.968;37.498;2023-04-01T00:46:28;12.90;;;11.52;;
65545;SDS011;52177;55.968;37.498;2023-04-01T00:46:59;13.50;;;11.80;;
65545;SDS011;52177;55.968;37.498;2023-04-01T00:47:30;13.32;;;11.30;;
65545;SDS011;52177;55.968;37.498;2023-04-01T00:48:05;13.55;;;11.00;;
65545;SDS011;52177;55.968;37.498;2023-04-01T00:48:44;12.63;;;11.30;;
65545;SDS011;52177;55.968;37.498;2023-04-01T00:49:17;13.50;;;11.25;;
65545;SDS011;52177;55.968;37.498;2023-04-01T00:49:50;13.32;;;10.85;;
65545;SDS011;52177;55.968;37.498;2023-04-01T00:50:22;15.15;;;13.00;;
65545;SDS011;52177;55.968;37.498;2023-04-01T00:51:03;13.82;;;11.68;;
65545;SDS011;52177;55.968;37.498;2023-04-01T00:51:36;12.93;;;11.55;;
65545;SDS011;52177;55.968;37.498;2023-04-01T00:52:08;12.63;;;11.32;;
65545;SDS011;52177;55.968;37.498;2023-04-01T00:52:42;12.27;;;10.75;;
65545;SDS011;52177;55.968;37.498;2023-04-01T00:53:13;14.10;;;11.07;;
65545;SDS011;52177;55.968;37.498;2023-04-01T00:53:45;13.38;;;11.73;;
65545;SDS011;52177;55.968;37.498;2023-04-01T00:54:18;14.30;;;11.10;;
65545;SDS011;52177;55.968;37.498;2023-04-01T00:54:53;12.93;;;11.55;;
65545;SDS011;52177;55.968;37.498;2023-04-01T00:55:29;14.88;;;11.70;;
65545;SDS011;52177;55.968;37.498;2023-04-01T00:56:18;14.13;;;11.15;;
65545;SDS011;52177;55.968;37.498;2023-04-01T00:57:00;12.45;;;10.85;;
65545;SDS011;52177;55.968;37.498;2023-04-01T00:57:35;12.45;;;10.57;;
65545;SDS011;52177;55.968;37.498;2023-04-01T00:58:08;12.50;;;10.20;;
65545;SDS011;52177;55.968;37.498;2023-04-01T00:58:45;13.70;;;10.52;;
65545;SDS011;52177;55.968;37.498;2023-04-01T00:59:20;11.88;;;10.60;;
65545;SDS011;52177;55.968;37.498;2023-04-01T00:59:54;12.05;;;10.75;;
65545;SDS011;52177;55.968;37.498;2023-04-01T01:00:26;12.00;;;10.80;;
65545;SDS011;52177;55.968;37.498;2023-04-01T01:00:56;13.82;;;11.27;;
65545;SDS011;52177;55.968;37.498;2023-04-01T01:01:29;13.57;;;11.32;;
65545;SDS011;52177;55.968;37.498;2023-04-01T01:02:05;12.88;;;10.38;;
65545;SDS011;52177;55.968;37.498;2023-04-01T01:02:38;12.98;;;10.88;;
65545;SDS011;52177;55.968;37.498;2023-04-01T01:03:12;13.18;;;11.23;;
65545;SDS011;52177;55.968;37.498;2023-04-01T01:03:43;14.00;;;11.07;;
65545;SDS011;52177;55.968;37.498;2023-04-01T01:04:24;13.15;;;10.98;;
65545;SDS011;52177;55.968;37.498;2023-04-01T01:04:56;12.70;;;10.52;;
65545;SDS011;52177;55.968;37.498;2023-04-01T01:05:30;13.38;;;10.70;;
65545;SDS011;52177;55.968;37.498;2023-04-01T01:06:10;13.00;;;11.38;;
65545;SDS011;52177;55.968;37.498;2023-04-01T01:07:27;14.18;;;11.00;;
65545;SDS011;52177;55.968;37.498;2023-04-01T01:08:14;12.10;;;10.73;;
65545;SDS011;52177;55.968;37.498;2023-04-01T01:10:45;10.77;;;9.43;;
65545;SDS011;52177;55.968;37.498;2023-04-01T01:11:22;12.52;;;10.77;;
65545;SDS011;52177;55.968;37.498;2023-04-01T01:14:48;12.18;;;10.23;;
65545;SDS011;52177;55.968;37.498;2023-04-01T01:15:26;12.48;;;9.98;;
65545;SDS011;52177;55.968;37.498;2023-04-01T01:16:20;12.25;;;9.80;;
65545;SDS011;52177;55.968;37.498;2023-04-01T01:16:57;12.00;;;10.23;;
65545;SDS011;52177;55.968;37.498;2023-04-01T01:17:46;10.25;;;9.15;;
65545;SDS011;52177;55.968;37.498;2023-04-01T01:19:23;11.18;;;9.32;;
65545;SDS011;52177;55.968;37.498;2023-04-01T01:21:21;11.55;;;9.32;;
65545;SDS011;52177;55.968;37.498;2023-04-01T01:22:04;11.25;;;9.20;;
65545;SDS011;52177;55.968;37.498;2023-04-01T01:23:44;9.55;;;8.43;;
65545;SDS011;52177;55.968;37.498;2023-04-01T01:24:30;10.50;;;9.23;;
65545;SDS011;52177;55.968;37.498;2023-04-01T01:27:39;12.52;;;9.75;;
65545;SDS011;52177;55.968;37.498;2023-04-01T01:31:53;12.57;;;9.38;;
65545;SDS011;52177;55.968;37.498;2023-04-01T01:35:22;12.20;;;9.90;;
65545;SDS011;52177;55.968;37.498;2023-04-01T01:35:59;12.95;;;9.65;;
65545;SDS011;52177;55.968;37.498;2023-04-01T01:36:35;12.25;;;10.43;;
65545;SDS011;52177;55.968;37.498;2023-04-01T01:37:10;11.65;;;10.43;;
65545;SDS011;52177;55.968;37.498;2023-04-01T01:37:45;13.38;;;11.30;;
65545;SDS011;52177;55.968;37.498;2023-04-01T01:38:18;12.70;;;10.57;;
65545;SDS011;52177;55.968;37.498;2023-04-01T01:38:52;12.70;;;10.88;;
65545;SDS011;52177;55.968;37.498;2023-04-01T01:39:25;14.98;;;12.25;;
65545;SDS011;52177;55.968;37.498;2023-04-01T01:40:00;15.65;;;11.75;;
65545;SDS011;52177;55.968;37.498;2023-04-01T01:40:34;14.73;;;11.82;;
65545;SDS011;52177;55.968;37.498;2023-04-01T01:41:09;13.02;;;11.10;;
65545;SDS011;52177;55.968;37.498;2023-04-01T01:41:41;13.63;;;11.18;;
65545;SDS011;52177;55.968;37.498;2023-04-01T01:42:15;13.80;;;10.77;;
65545;SDS011;52177;55.968;37.498;2023-04-01T01:42:49;13.80;;;10.65;;
65545;SDS011;52177;55.968;37.498;2023-04-01T01:43:23;12.93;;;10.68;;
65545;SDS011;52177;55.968;37.498;2023-04-01T01:43:55;13.38;;;11.38;;
65545;SDS011;52177;55.968;37.498;2023-04-01T01:44:26;14.20;;;10.80;;
65545;SDS011;52177;55.968;37.498;2023-04-01T01:45:00;13.68;;;11.30;;
65545;SDS011;52177;55.968;37.498;2023-04-01T01:45:34;13.27;;;10.85;;
65545;SDS011;52177;55.968;37.498;2023-04-01T01:46:12;13.75;;;11.35;;
65545;SDS011;52177;55.968;37.498;2023-04-01T01:46:47;11.18;;;9.98;;
65545;SDS011;52177;55.968;37.498;2023-04-01T01:47:18;11.68;;;10.48;;
65545;SDS011;52177;55.968;37.498;2023-04-01T01:47:51;12.45;;;10.25;;
65545;SDS011;52177;55.968;37.498;2023-04-01T01:48:24;12.13;;;10.77;;
65545;SDS011;52177;55.968;37.498;2023-04-01T01:48:57;14.60;;;12.27;;
65545;SDS011;52177;55.968;37.498;2023-04-01T01:49:30;13.80;;;10.90;;
65545;SDS011;52177;55.968;37.498;2023-04-01T01:50:03;12.43;;;11.00;;
65545;SDS011;52177;55.968;37.498;2023-04-01T01:50:34;15.63;;;11.23;;
65545;SDS011;52177;55.968;37.498;2023-04-01T01:51:06;12.20;;;10.80;;
65545;SDS011;52177;55.968;37.498;2023-04-01T01:51:37;11.77;;;10.57;;
65545;SDS011;52177;55.968;37.498;2023-04-01T01:52:09;12.30;;;10.57;;
65545;SDS011;52177;55.968;37.498;2023-04-01T01:52:39;12.43;;;11.13;;
65545;SDS011;52177;55.968;37.498;2023-04-01T01:53:11;13.13;;;11.65;;
65545;SDS011;52177;55.968;37.498;2023-04-01T01:53:42;13.90;;;11.30;;
65545;SDS011;52177;55.968;37.498;2023-04-01T01:54:16;12.38;;;11.07;;
65545;SDS011;52177;55.968;37.498;2023-04-01T01:54:48;13.15;;;11.18;;
65545;SDS011;52177;55.968;37.498;2023-04-01T01:55:52;12.63;;;10.68;;
65545;SDS011;52177;55.968;37.498;2023-04-01T01:56:17;13.32;;;11.45;;
65545;SDS011;52177;55.968;37.498;2023-04-01T01:56:51;13.30;;;11.10;;
65545;SDS011;52177;55.968;37.498;2023-04-01T01:57:28;12.65;;;10.60;;
65545;SDS011;52177;55.968;37.498;2023-04-01T01:58:11;14.25;;;11.45;;
65545;SDS011;52177;55.968;37.498;2023-04-01T01:58:43;16.00;;;11.13;;
65545;SDS011;52177;55.968;37.498;2023-04-01T01:59:17;14.50;;;11.10;;
65545;SDS011;52177;55.968;37.498;2023-04-01T01:59:52;14.07;;;11.48;;
65545;SDS011;52177;55.968;37.498;2023-04-01T02:00:29;15.15;;;11.82;;
65545;SDS011;52177;55.968;37.498;2023-04-01T02:01:01;14.70;;;12.45;;
65545;SDS011;52177;55.968;37.498;2023-04-01T02:01:36;13.25;;;10.77;;
65545;SDS011;52177;55.968;37.498;2023-04-01T02:02:10;13.65;;;11.70;;
65545;SDS011;52177;55.968;37.498;2023-04-01T02:02:43;12.35;;;10.93;;
65545;SDS011;52177;55.968;37.498;2023-04-01T02:03:15;12.18;;;10.52;;
65545;SDS011;52177;55.968;37.498;2023-04-01T02:03:48;13.93;;;11.10;;
65545;SDS011;52177;55.968;37.498;2023-04-01T02:04:21;13.23;;;10.75;;
65545;SDS011;52177;55.968;37.498;2023-04-01T02:04:53;13.75;;;10.90;;
65545;SDS011;52177;55.968;37.498;2023-04-01T02:05:24;12.00;;;10.55;;
65545;SDS011;52177;55.968;37.498;2023-04-01T02:05:59;12.65;;;10.27;;
65545;SDS011;52177;55.968;37.498;2023-04-01T02:06:32;12.73;;;10.77;;
65545;SDS011;52177;55.968;37.498;2023-04-01T02:07:08;12.73;;;10.57;;
65545;SDS011;52177;55.968;37.498;2023-04-01T02:07:46;11.77;;;10.52;;
65545;SDS011;52177;55.968;37.498;2023-04-01T02:08:31;12.50;;;10.35;;
65545;SDS011;52177;55.968;37.498;2023-04-01T02:09:07;13.25;;;11.02;;
65545;SDS011;52177;55.968;37.498;2023-04-01T02:09:40;13.43;;;11.10;;
65545;SDS011;52177;55.968;37.498;2023-04-01T02:10:11;12.88;;;10.73;;
65545;SDS011;52177;55.968;37.498;2023-04-01T02:10:42;12.82;;;10.88;;
65545;SDS011;52177;55.968;37.498;2023-04-01T02:11:23;12.88;;;11.40;;
65545;SDS011;52177;55.968;37.498;2023-04-01T02:12:06;13.30;;;11.27;;
65545;SDS011;52177;55.968;37.498;2023-04-01T02:12:38;13.38;;;11.10;;
65545;SDS011;52177;55.968;37.498;2023-04-01T02:13:17;13.98;;;11.70;;
65545;SDS011;52177;55.968;37.498;2023-04-01T02:14:04;11.80;;;10.60;;
65545;SDS011;52177;55.968;37.498;2023-04-01T02:14:45;13.15;;;11.02;;
65545;SDS011;52177;55.968;37.498;2023-04-01T02:15:21;15.20;;;11.18;;
65545;SDS011;52177;55.968;37.498;2023-04-01T02:15:52;13.65;;;10.93;;
65545;SDS011;52177;55.968;37.498;2023-04-01T02:16:32;13.93;;;10.98;;
65545;SDS011;52177;55.968;37.498;2023-04-01T02:17:07;12.18;;;10.13;;
65545;SDS011;52177;55.968;37.498;2023-04-01T02:17:42;12.52;;;10.32;;
65545;SDS011;52177;55.968;37.498;2023-04-01T02:18:15;12.52;;;10.70;;
65545;SDS011;52177;55.968;37.498;2023-04-01T02:18:47;12.80;;;10.77;;
65545;SDS011;52177;55.968;37.498;2023-04-01T02:19:20;11.95;;;10.45;;
65545;SDS011;52177;55.968;37.498;2023-04-01T02:20:00;12.93;;;10.70;;
65545;SDS011;52177;55.968;37.498;2023-04-01T02:20:34;11.65;;;10.32;;
65545;SDS011;52177;55.968;37.498;2023-04-01T02:21:07;13.43;;;11.35;;
65545;SDS011;52177;55.968;37.498;2023-04-01T02:21:39;12.13;;;10.45;;
65545;SDS011;52177;55.968;37.498;2023-04-01T02:22:12;13.88;;;11.07;;
65545;SDS011;52177;55.968;37.498;2023-04-01T02:22:47;12.70;;;10.70;;
65545;SDS011;52177;55.968;37.498;2023-04-01T02:23:20;13.20;;;11.25;;
65545;SDS011;52177;55.968;37.498;2023-04-01T02:23:50;15.98;;;11.50;;
65545;SDS011;52177;55.968;37.498;2023-04-01T02:24:23;13.30;;;11.85;;
65545;SDS011;52177;55.968;37.498;2023-04-01T02:24:58;12.57;;;11.07;;
65545;SDS011;52177;55.968;37.498;2023-04-01T02:25:33;12.20;;;10.57;;
65545;SDS011;52177;55.968;37.498;2023-04-01T02:26:07;12.18;;;10.88;;
65545;SDS011;52177;55.968;37.498;2023-04-01T02:26:40;12.75;;;11.05;;
65545;SDS011;52177;55.968;37.498;2023-04-01T02:27:11;14.02;;;11.13;;
65545;SDS011;52177;55.968;37.498;2023-04-01T02:27:42;13.18;;;10.93;;
65545;SDS011;52177;55.968;37.498;2023-04-01T02:28:14;13.57;;;11.02;;
65545;SDS011;52177;55.968;37.498;2023-04-01T02:28:49;12.50;;;11.18;;
65545;SDS011;52177;55.968;37.498;2023-04-01T02:29:22;12.93;;;11.57;;
65545;SDS011;52177;55.968;37.498;2023-04-01T02:29:55;12.02;;;10.23;;
65545;SDS011;52177;55.968;37.498;2023-04-01T02:30:26;13.52;;;10.30;;
65545;SDS011;52177;55.968;37.498;2023-04-01T02:31:01;12.98;;;10.73;;
65545;SDS011;52177;55.968;37.498;2023-04-01T02:31:33;13.30;;;11.90;;
65545;SDS011;52177;55.968;37.498;2023-04-01T02:32:04;14.27;;;11.82;;
65545;SDS011;52177;55.968;37.498;2023-04-01T02:32:36;12.82;;;11.45;;
65545;SDS011;52177;55.968;37.498;2023-04-01T02:33:08;14.95;;;12.38;;
65545;SDS011;52177;55.968;37.498;2023-04-01T02:33:38;12.52;;;10.93;;
65545;SDS011;52177;55.968;37.498;2023-04-01T02:34:09;13.38;;;11.75;;
65545;SDS011;52177;55.968;37.498;2023-04-01T02:34:40;13.77;;;11.05;;
65545;SDS011;52177;55.968;37.498;2023-04-01T02:35:13;15.25;;;12.50;;
65545;SDS011;52177;55.968;37.498;2023-04-01T02:35:45;13.23;;;11.77;;
65545;SDS011;52177;55.968;37.498;2023-04-01T02:36:16;14.75;;;11.93;;
65545;SDS011;52177;55.968;37.498;2023-04-01T02:36:47;14.63;;;11.40;;
65545;SDS011;52177;55.968;37.498;2023-04-01T02:37:19;13.68;;;12.10;;
65545;SDS011;52177;55.968;37.498;2023-04-01T02:37:50;12.93;;;11.20;;
65545;SDS011;52177;55.968;37.498;2023-04-01T02:38:23;12.75;;;11.45;;
65545;SDS011;52177;55.968;37.498;2023-04-01T02:38:53;13.98;;;11.48;;
65545;SDS011;52177;55.968;37.498;2023-04-01T02:39:29;13.73;;;11.13;;
65545;SDS011;52177;55.968;37.498;2023-04-01T02:40:00;13.50;;;11.73;;
65545;SDS011;52177;55.968;37.498;2023-04-01T02:40:41;13.95;;;12.02;;
65545;SDS011;52177;55.968;37.498;2023-04-01T02:41:13;14.07;;;11.23;;
65545;SDS011;52177;55.968;37.498;2023-04-01T02:41:44;12.82;;;10.43;;
65545;SDS011;52177;55.968;37.498;2023-04-01T02:42:15;13.60;;;11.45;;
65545;SDS011;52177;55.968;37.498;2023-04-01T02:42:45;12.10;;;10.80;;
65545;SDS011;52177;55.968;37.498;2023-04-01T02:43:16;13.95;;;11.55;;
65545;SDS011;52177;55.968;37.498;2023-04-01T02:43:47;13.88;;;10.88;;
65545;SDS011;52177;55.968;37.498;2023-04-01T02:44:17;13.80;;;11.27;;
65545;SDS011;52177;55.968;37.498;2023-04-01T02:44:48;14.55;;;11.32;;
65545;SDS011;52177;55.968;37.498;2023-04-01T02:45:18;14.10;;;11.57;;
65545;SDS011;52177;55.968;37.498;2023-04-01T02:45:48;14.60;;;11.35;;
65545;SDS011;52177;55.968;37.498;2023-04-01T02:46:19;13.20;;;10.73;;
65545;SDS011;52177;55.968;37.498;2023-04-01T02:46:49;13.32;;;11.77;;
65545;SDS011;52177;55.968;37.498;2023-04-01T02:47:19;12.77;;;11.02;;
65545;SDS011;52177;55.968;37.498;2023-04-01T02:47:50;12.30;;;11.00;;
65545;SDS011;52177;55.968;37.498;2023-04-01T02:48:20;12.43;;;11.05;;
65545;SDS011;52177;55.968;37.498;2023-04-01T02:48:51;13.18;;;11.32;;
65545;SDS011;52177;55.968;37.498;2023-04-01T02:49:21;12.40;;;10.68;;
65545;SDS011;52177;55.968;37.498;2023-04-01T02:49:51;12.52;;;11.13;;
65545;SDS011;52177;55.968;37.498;2023-04-01T02:50:27;12.02;;;10.65;;
65545;SDS011;52177;55.968;37.498;2023-04-01T02:50:58;11.85;;;10.60;;
65545;SDS011;52177;55.968;37.498;2023-04-01T02:51:28;12.07;;;10.77;;
65545;SDS011;52177;55.968;37.498;2023-04-01T02:51:58;12.88;;;10.80;;
65545;SDS011;52177;55.968;37.498;2023-04-01T02:52:29;12.20;;;10.88;;
65545;SDS011;52177;55.968;37.498;2023-04-01T02:53:00;12.82;;;11.02;;
65545;SDS011;52177;55.968;37.498;2023-04-01T02:53:30;13.43;;;11.00;;
65545;SDS011;52177;55.968;37.498;2023-04-01T02:54:01;13.15;;;11.27;;
65545;SDS011;52177;55.968;37.498;2023-04-01T02:54:31;13.15;;;11.43;;
65545;SDS011;52177;55.968;37.498;2023-04-01T02:55:02;13.70;;;11.48;;
65545;SDS011;52177;55.968;37.498;2023-04-01T02:55:33;14.20;;;12.05;;
65545;SDS011;52177;55.968;37.498;2023-04-01T02:56:04;14.07;;;11.45;;
65545;SDS011;52177;55.968;37.498;2023-04-01T02:56:34;13.63;;;11.50;;
65545;SDS011;52177;55.968;37.498;2023-04-01T02:57:04;13.85;;;11.63;;
65545;SDS011;52177;55.968;37.498;2023-04-01T02:57:35;13.02;;;11.45;;
65545;SDS011;52177;55.968;37.498;2023-04-01T02:58:05;14.52;;;12.00;;
65545;SDS011;52177;55.968;37.498;2023-04-01T02:58:36;14.00;;;11.85;;
65545;SDS011;52177;55.968;37.498;2023-04-01T02:59:06;14.60;;;12.10;;
65545;SDS011;52177;55.968;37.498;2023-04-01T02:59:36;13.27;;;11.00;;
65545;SDS011;52177;55.968;37.498;2023-04-01T03:00:07;13.32;;;11.20;;
65545;SDS011;52177;55.968;37.498;2023-04-01T03:00:41;14.00;;;11.45;;
65545;SDS011;52177;55.968;37.498;2023-04-01T03:01:11;11.60;;;10.13;;
65545;SDS011;52177;55.968;37.498;2023-04-01T03:01:42;12.77;;;11.13;;
65545;SDS011;52177;55.968;37.498;2023-04-01T03:02:12;12.90;;;11.43;;
65545;SDS011;52177;55.968;37.498;2023-04-01T03:02:43;14.32;;;11.63;;
65545;SDS011;52177;55.968;37.498;2023-04-01T03:03:14;13.57;;;11.77;;
65545;SDS011;52177;55.968;37.498;2023-04-01T03:03:44;13.77;;;11.60;;
65545;SDS011;52177;55.968;37.498;2023-04-01T03:04:14;15.38;;;12.18;;
65545;SDS011;52177;55.968;37.498;2023-04-01T03:04:45;13.80;;;11.43;;
65545;SDS011;52177;55.968;37.498;2023-04-01T03:05:15;13.48;;;11.60;;
65545;SDS011;52177;55.968;37.498;2023-04-01T03:05:46;14.30;;;11.77;;
65545;SDS011;52177;55.968;37.498;2023-04-01T03:06:16;15.25;;;11.93;;
65545;SDS011;52177;55.968;37.498;2023-04-01T03:06:47;13.40;;;12.00;;
65545;SDS011;52177;55.968;37.498;2023-04-01T03:07:17;13.88;;;11.65;;
65545;SDS011;52177;55.968;37.498;2023-04-01T03:07:48;15.32;;;11.90;;
65545;SDS011;52177;55.968;37.498;2023-04-01T03:08:18;13.32;;;11.93;;
65545;SDS011;52177;55.968;37.498;2023-04-01T03:08:49;13.52;;;11.55;;
65545;SDS011;52177;55.968;37.498;2023-04-01T03:09:19;13.48;;;11.23;;
65545;SDS011;52177;55.968;37.498;2023-04-01T03:09:49;14.10;;;12.60;;
65545;SDS011;52177;55.968;37.498;2023-04-01T03:10:20;13.50;;;12.07;;
65545;SDS011;52177;55.968;37.498;2023-04-01T03:10:51;16.30;;;12.80;;
65545;SDS011;52177;55.968;37.498;2023-04-01T03:11:21;15.75;;;12.75;;
65545;SDS011;52177;55.968;37.498;2023-04-01T03:11:51;16.20;;;13.07;;
65545;SDS011;52177;55.968;37.498;2023-04-01T03:12:21;14.00;;;12.18;;
65545;SDS011;52177;55.968;37.498;2023-04-01T03:12:52;14.45;;;12.63;;
65545;SDS011;52177;55.968;37.498;2023-04-01T03:13:22;15.02;;;11.85;;
65545;SDS011;52177;55.968;37.498;2023-04-01T03:13:52;15.77;;;12.63;;
65545;SDS011;52177;55.968;37.498;2023-04-01T03:14:23;15.57;;;12.82;;
65545;SDS011;52177;55.968;37.498;2023-04-01T03:14:53;17.23;;;13.27;;
65545;SDS011;52177;55.968;37.498;2023-04-01T03:15:23;15.85;;;13.60;;
65545;SDS011;52177;55.968;37.498;2023-04-01T03:15:54;15.73;;;12.93;;
65545;SDS011;52177;55.968;37.498;2023-04-01T03:16:24;16.25;;;12.85;;
65545;SDS011;52177;55.968;37.498;2023-04-01T03:16:55;15.40;;;13.15;;
65545;SDS011;52177;55.968;37.498;2023-04-01T03:17:25;13.57;;;11.48;;
65545;SDS011;52177;55.968;37.498;2023-04-01T03:17:55;14.45;;;12.32;;
65545;SDS011;52177;55.968;37.498;2023-04-01T03:18:26;15.65;;;13.07;;
65545;SDS011;52177;55.968;37.498;2023-04-01T03:18:56;15.70;;;12.45;;
65545;SDS011;52177;55.968;37.498;2023-04-01T03:19:28;16.80;;;12.68;;
65545;SDS011;52177;55.968;37.498;2023-04-01T03:19:59;16.83;;;12.43;;
65545;SDS011;52177;55.968;37.498;2023-04-01T03:20:29;13.55;;;11.68;;
65545;SDS011;52177;55.968;37.498;2023-04-01T03:21:13;15.27;;;13.13;;
65545;SDS011;52177;55.968;37.498;2023-04-01T03:21:44;15.32;;;12.80;;
65545;SDS011;52177;55.968;37.498;2023-04-01T03:22:14;15.90;;;11.82;;
65545;SDS011;52177;55.968;37.498;2023-04-01T03:22:45;16.55;;;13.10;;
65545;SDS011;52177;55.968;37.498;2023-04-01T03:23:16;15.10;;;12.35;;
65545;SDS011;52177;55.968;37.498;2023-04-01T03:23:49;17.95;;;13.30;;
65545;SDS011;52177;55.968;37.498;2023-04-01T03:24:20;15.77;;;13.10;;
65545;SDS011;52177;55.968;37.498;2023-04-01T03:24:50;15.20;;;12.70;;
65545;SDS011;52177;55.968;37.498;2023-04-01T03:25:21;17.70;;;14.27;;
65545;SDS011;52177;55.968;37.498;2023-04-01T03:25:51;16.13;;;12.70;;
65545;SDS011;52177;55.968;37.498;2023-04-01T03:26:22;15.25;;;12.98;;
65545;SDS011;52177;55.968;37.498;2023-04-01T03:26:52;15.93;;;13.15;;
65545;SDS011;52177;55.968;37.498;2023-04-01T03:27:23;14.88;;;12.23;;